Terminal Aerodrome Forecast
Issued by NWS Atlanta, GA

Home | Current Version | Previous Version | Text Only | Print | Product List | Glossary On
Versions: 1 2 3 4 5 6 7 8 9 10 11 12 13 14 15 16 17
000
FTUS42 KFFC 031123
TAFMCN
TAF
KMCN 031123Z 0312/0412 00000KT 6SM BR SCT006 BKN012
     FM031300 09003KT 4SM -DZ BR OVC006
     FM031800 18007KT P6SM OVC012
     FM032100 19007KT P6SM OVC025
     FM040500 21006KT P6SM OVC025
     FM040700 20006KT 5SM BR OVC012=

USA.gov is the U.S. government's official web portal to all federal, state and local government web resources and services.